Time;durP1;ratioP1;P1;durP2;ratioP2;P2;SDS_P1;SDS_P2;PMS_P1;PMS_P2;Temp;Humidity;BMP_temperature;BMP_pressure;BME280_temperature;BME280_humidity;BME280_pressure;Samples;Min_cycle;Max_cycle;Signal;HPM_P1;HPM_P2
2021/05/17 00:01:00;;;;;;;7.68;4.85;;;;;;;7.76;80.94;99718.41;3606499;39;20401;-70
2021/05/17 00:03:28;;;;;;;9.63;5.07;;;;;;;7.78;80.17;99724.34;3607048;39;20059;-69
2021/05/17 00:05:56;;;;;;;3.88;3.10;;;;;;;7.79;80.40;99727.81;3606792;39;20052;-71
2021/05/17 00:08:24;;;;;;;6.03;4.85;;;;;;;7.73;80.67;99726.44;3607048;39;20125;-69
2021/05/17 00:10:52;;;;;;;253.35;102.90;;;;;;;7.68;82.91;99737.16;3606986;39;20042;-64
2021/05/17 00:13:19;;;;;;;40.42;20.00;;;;;;;7.70;81.40;99732.69;3606956;39;20048;-65
2021/05/17 00:15:46;;;;;;;20.90;11.18;;;;;;;7.72;82.78;99734.34;3606935;39;20071;-66
2021/05/17 00:18:14;;;;;;;7.88;6.00;;;;;;;7.74;81.63;99740.28;3606933;39;20061;-65
2021/05/17 00:20:42;;;;;;;6.18;4.85;;;;;;;7.74;83.13;99733.31;3605136;39;20103;-71
2021/05/17 00:23:10;;;;;;;4.85;4.10;;;;;;;7.77;83.37;99734.88;3607281;39;20059;-66
2021/05/17 00:25:38;;;;;;;5.28;3.88;;;;;;;7.77;83.91;99740.91;3607302;39;20051;-64
2021/05/17 00:28:06;;;;;;;4.90;4.38;;;;;;;7.79;82.87;99733.00;3606810;39;20424;-70
2021/05/17 00:30:34;;;;;;;6.35;4.93;;;;;;;7.82;83.32;99740.59;3607059;39;20199;-69
2021/05/17 00:33:01;;;;;;;5.38;4.75;;;;;;;7.82;82.23;99731.00;3607081;39;20047;-70
2021/05/17 00:35:29;;;;;;;6.35;5.10;;;;;;;7.84;82.38;99736.13;3607042;39;20055;-64
2021/05/17 00:37:56;;;;;;;5.50;4.47;;;;;;;7.83;81.96;99742.25;3606953;39;20136;-67
2021/05/17 00:40:24;;;;;;;7.65;5.57;;;;;;;7.81;81.30;99742.34;3606111;39;20122;-64
2021/05/17 00:42:52;;;;;;;6.43;5.50;;;;;;;7.76;81.61;99741.00;3606765;39;20083;-68
2021/05/17 00:45:21;;;;;;;6.68;5.95;;;;;;;7.72;82.04;99744.75;3606466;39;20070;-66
2021/05/17 00:47:51;;;;;;;6.25;5.25;;;;;;;7.70;82.02;99742.28;3606692;39;20039;-69
2021/05/17 00:50:24;;;;;;;6.65;5.10;;;;;;;7.68;81.41;99750.16;3596891;39;20409;-66
2021/05/17 00:52:55;;;;;;;5.20;4.65;;;;;;;7.62;82.03;99741.94;3606505;39;20055;-70
2021/05/17 00:55:25;;;;;;;4.35;3.80;;;;;;;7.56;82.95;99742.38;3606885;39;20050;-66
2021/05/17 00:57:52;;;;;;;5.78;5.07;;;;;;;7.55;81.67;99751.09;3597053;39;20035;-69
2021/05/17 01:00:24;;;;;;;6.15;5.38;;;;;;;7.52;81.31;99751.31;3596648;39;20058;-64
2021/05/17 01:02:57;;;;;;;4.93;4.22;;;;;;;7.38;81.90;99752.25;3606397;39;20055;-70
2021/05/17 01:05:44;;;;;;;6.45;4.85;;;;;;;7.30;83.45;99752.75;3606711;39;20318;-65
2021/05/17 01:08:26;;;;;;;5.20;4.70;;;;;;;7.32;82.17;99757.84;3606764;39;20051;-66
2021/05/17 01:10:56;;;;;;;5.38;4.47;;;;;;;7.32;81.48;99755.25;3606809;39;20063;-70
2021/05/17 01:13:29;;;;;;;5.40;4.75;;;;;;;7.32;81.74;99758.69;3596890;39;20028;-69
2021/05/17 01:15:59;;;;;;;4.75;3.92;;;;;;;7.33;82.94;99762.94;3596840;39;20387;-70
2021/05/17 01:18:27;;;;;;;9.20;5.38;;;;;;;7.33;82.70;99759.53;3606510;39;20059;-69
2021/05/17 01:20:57;;;;;;;4.95;4.05;;;;;;;7.34;84.30;99762.00;3606601;39;20055;-66
2021/05/17 01:23:32;;;;;;;6.68;4.35;;;;;;;7.31;85.38;99767.44;3596455;39;20143;-69
2021/05/17 01:26:04;;;;;;;4.80;4.00;;;;;;;7.32;84.91;99773.47;3606305;39;20028;-71
2021/05/17 01:28:34;;;;;;;10.02;3.65;;;;;;;7.32;85.01;99771.69;3606319;39;20048;-68
2021/05/17 01:31:05;;;;;;;6.10;5.07;;;;;;;7.32;84.44;99771.69;3604693;39;20056;-70
2021/05/17 01:33:42;;;;;;;6.70;5.40;;;;;;;7.37;84.93;99769.63;3606394;39;20068;-68
2021/05/17 01:36:13;;;;;;;6.65;4.85;;;;;;;7.40;85.30;99768.56;3604529;39;20428;-70
2021/05/17 01:38:48;;;;;;;6.38;5.68;;;;;;;7.43;84.55;99770.97;3606714;39;20044;-65
2021/05/17 01:41:19;;;;;;;7.65;6.25;;;;;;;7.46;84.05;99777.75;3596387;39;20060;-65
2021/05/17 01:43:56;;;;;;;5.78;4.55;;;;;;;7.49;85.33;99772.31;3606875;39;20043;-65
2021/05/17 01:46:31;;;;;;;5.47;4.28;;;;;;;7.52;84.85;99778.16;3596939;39;20062;-63
2021/05/17 01:49:14;;;;;;;5.57;4.47;;;;;;;7.54;84.99;99785.88;3596114;39;20071;-66
2021/05/17 01:51:44;;;;;;;6.45;4.65;;;;;;;7.54;84.79;99794.50;3606841;39;20399;-63
2021/05/17 01:54:12;;;;;;;6.50;4.63;;;;;;;7.56;85.11;99784.00;3608012;39;20056;-68
2021/05/17 01:56:45;;;;;;;6.90;5.90;;;;;;;7.60;84.15;99790.69;3608123;39;20302;-63
2021/05/17 01:59:27;;;;;;;6.22;5.25;;;;;;;7.58;85.04;99782.13;3598498;39;20306;-63
2021/05/17 02:01:55;;;;;;;7.18;4.90;;;;;;;7.50;85.52;99785.25;3607768;39;20168;-73
2021/05/17 02:04:25;;;;;;;7.78;4.32;;;;;;;7.50;85.41;99792.19;3607798;39;20136;-63
2021/05/17 02:06:54;;;;;;;7.32;6.15;;;;;;;7.46;83.80;99789.00;3608029;39;20099;-69
2021/05/17 02:09:26;;;;;;;7.22;3.90;;;;;;;7.38;85.12;99792.09;3608108;39;20070;-63
2021/05/17 02:11:53;;;;;;;5.95;4.47;;;;;;;7.39;84.56;99793.75;3605597;39;20032;-63
2021/05/17 02:14:50;;;;;;;4.65;4.03;;;;;;;7.40;85.63;99795.41;3598225;39;20055;-63
2021/05/17 02:17:24;;;;;;;4.27;3.17;;;;;;;7.42;85.40;99796.16;3598331;39;20063;-63
2021/05/17 02:19:52;;;;;;;7.68;5.03;;;;;;;7.45;84.41;99802.91;3598194;39;20318;-64
2021/05/17 02:22:21;;;;;;;9.32;6.70;;;;;;;7.39;88.14;99803.31;3607867;39;20056;-68
2021/05/17 02:25:16;;;;;;;10.85;5.35;;;;;;;7.18;89.87;99806.41;3605937;39;20421;-65
2021/05/17 02:27:44;;;;;;;12.82;8.30;;;;;;;7.24;88.55;99802.56;3607974;39;20084;-70
2021/05/17 02:30:13;;;;;;;8.40;6.28;;;;;;;7.35;89.21;99800.09;3607547;39;20197;-63
2021/05/17 02:32:42;;;;;;;16.23;9.43;;;;;;;7.42;88.38;99792.72;3596201;39;20108;-65
2021/05/17 02:35:14;;;;;;;26.65;9.63;;;;;;;7.44;88.96;99803.84;3598232;39;20052;-62
2021/05/17 02:37:41;;;;;;;14.70;7.68;;;;;;;7.49;89.82;99801.78;3607505;39;20051;-63
2021/05/17 02:40:10;;;;;;;8.52;6.40;;;;;;;7.55;89.82;99797.94;3596075;39;20429;-67
2021/05/17 02:42:44;;;;;;;12.30;8.05;;;;;;;7.62;88.90;99801.81;3597997;39;20063;-63
2021/05/17 02:45:15;;;;;;;18.65;8.38;;;;;;;7.68;88.94;99801.38;3597558;39;20047;-64
2021/05/17 02:47:44;;;;;;;14.68;8.00;;;;;;;7.73;89.41;99799.31;3607807;39;20062;-66
2021/05/17 02:50:15;;;;;;;33.65;12.18;;;;;;;7.78;88.97;99797.22;3607714;39;20325;-64
2021/05/17 02:52:44;;;;;;;29.33;9.68;;;;;;;7.67;91.25;99799.72;3607748;39;20103;-67
2021/05/17 02:55:14;;;;;;;38.88;9.52;;;;;;;7.69;91.11;99809.13;3607829;39;20047;-64
2021/05/17 02:57:56;;;;;;;21.35;8.95;;;;;;;7.72;91.37;99807.22;3607164;39;20421;-64
2021/05/17 03:00:24;;;;;;;;;;;;;;;7.68;94.05;99811.78;3598755;39;20070;-68
2021/05/17 03:03:15;;;;;;;15.10;8.55;;;;;;;7.74;93.91;99818.34;3597232;39;19927;-65
2021/05/17 03:06:11;;;;;;;13.82;7.78;;;;;;;7.90;93.22;99809.41;3597282;39;20048;-68
2021/05/17 03:08:58;;;;;;;10.48;7.20;;;;;;;8.00;93.26;99820.03;3597992;39;20087;-64
2021/05/17 03:11:36;;;;;;;39.72;8.70;;;;;;;8.07;92.94;99821.31;3607580;39;21384;-67
2021/05/17 03:14:05;;;;;;;18.88;8.60;;;;;;;8.16;92.29;99817.22;3607154;39;20083;-64
2021/05/17 03:16:33;;;;;;;37.58;9.70;;;;;;;8.18;92.54;99808.38;3607419;39;20051;-63
2021/05/17 03:19:03;;;;;;;48.67;10.38;;;;;;;8.24;92.38;99814.91;3607451;39;20051;-63
2021/05/17 03:21:32;;;;;;;8.25;6.60;;;;;;;8.31;93.12;99815.31;3607303;39;20412;-70
2021/05/17 03:24:00;;;;;;;13.48;7.55;;;;;;;8.42;91.32;99818.06;3607495;39;20058;-63
2021/05/17 03:26:29;;;;;;;8.98;6.75;;;;;;;8.53;92.57;99825.13;3597362;39;20043;-64
2021/05/17 03:28:56;;;;;;;23.75;10.68;;;;;;;8.61;92.14;99825.41;3607462;39;20051;-66
2021/05/17 03:31:24;;;;;;;18.52;9.63;;;;;;;8.70;91.53;99823.00;3607157;39;20321;-64
2021/05/17 03:33:51;;;;;;;20.67;10.68;;;;;;;8.82;91.55;99823.03;3597862;39;20059;-63
2021/05/17 03:36:18;;;;;;;10.65;7.35;;;;;;;8.91;91.81;99823.22;3607431;39;20110;-63
2021/05/17 03:38:46;;;;;;;14.20;10.90;;;;;;;9.06;90.35;99833.50;3607111;39;20417;-63
2021/05/17 03:41:14;;;;;;;11.93;8.48;;;;;;;9.16;92.09;99830.13;3605126;39;20299;-63
2021/05/17 03:43:41;;;;;;;25.83;11.65;;;;;;;9.28;92.81;99836.22;3607498;39;20066;-63
2021/05/17 03:46:08;;;;;;;14.05;9.57;;;;;;;9.42;91.64;99835.19;3607210;39;20075;-63
2021/05/17 03:48:41;;;;;;;15.32;9.63;;;;;;;9.52;91.12;99832.75;3607041;39;20044;-64
2021/05/17 03:51:10;;;;;;;12.80;9.43;;;;;;;9.63;92.09;99843.19;3607504;39;20930;-64
2021/05/17 03:53:39;;;;;;;12.50;8.90;;;;;;;9.77;90.73;99852.63;3606950;39;20060;-68
2021/05/17 03:56:06;;;;;;;13.68;10.02;;;;;;;9.90;91.96;99848.16;3606906;39;20055;-64
2021/05/17 03:58:34;;;;;;;12.02;9.07;;;;;;;10.05;90.79;99846.16;3607189;39;20058;-64
2021/05/17 04:01:02;;;;;;;10.05;7.85;;;;;;;10.20;90.42;99844.97;3607175;39;20040;-64
2021/05/17 04:03:31;;;;;;;14.23;9.48;;;;;;;10.35;90.65;99851.69;3644981;22;20035;-63
2021/05/17 04:14:00;;;;;;;10.38;8.73;;;;;;;10.79;88.02;99854.38;3606936;39;20059;-70
2021/05/17 04:16:29;;;;;;;10.50;8.48;;;;;;;10.90;87.35;99846.50;3606931;39;20043;-75
2021/05/17 04:18:57;;;;;;;11.30;9.90;;;;;;;11.01;86.75;99844.69;3606810;39;20440;-63
2021/05/17 04:21:24;;;;;;;10.85;9.50;;;;;;;11.09;85.80;99838.00;3606821;39;20071;-62
2021/05/17 04:23:52;;;;;;;11.45;9.05;;;;;;;11.19;85.73;99839.75;3604693;39;20059;-61
2021/05/17 04:26:19;;;;;;;9.75;7.75;;;;;;;11.29;85.76;99837.22;3607045;39;20063;-59
2021/05/17 04:28:46;;;;;;;24.27;15.93;;;;;;;11.42;86.13;99840.50;3606993;39;20036;-59
2021/05/17 04:31:14;;;;;;;14.13;10.55;;;;;;;11.49;85.60;99833.81;3606665;39;20055;-61
2021/05/17 04:33:41;;;;;;;10.70;8.38;;;;;;;11.63;84.91;99839.66;3606875;39;20067;-61
2021/05/17 04:36:09;;;;;;;9.43;7.90;;;;;;;11.74;84.69;99843.06;3607214;39;20076;-60
2021/05/17 04:38:37;;;;;;;11.63;8.77;;;;;;;11.87;83.97;99842.91;3607073;39;20048;-62
2021/05/17 04:41:04;;;;;;;9.57;8.18;;;;;;;11.96;84.68;99839.53;3606379;39;20044;-61
2021/05/17 04:43:31;;;;;;;11.57;8.85;;;;;;;12.05;83.64;99846.59;3606839;39;20044;-61
2021/05/17 04:45:59;;;;;;;12.57;10.82;;;;;;;12.16;84.00;99850.13;3606631;39;20325;-61
2021/05/17 04:48:26;;;;;;;11.52;9.40;;;;;;;12.25;83.04;99842.28;3606696;39;20059;-60
2021/05/17 04:50:53;;;;;;;10.65;9.25;;;;;;;12.36;83.44;99836.13;3606692;39;20055;-61
2021/05/17 04:53:21;;;;;;;11.63;9.20;;;;;;;12.47;83.28;99840.44;3606907;39;20085;-63
2021/05/17 04:55:48;;;;;;;11.88;9.70;;;;;;;12.57;82.83;99842.13;3606645;39;20128;-61
2021/05/17 04:58:16;;;;;;;48.40;25.50;;;;;;;12.72;82.47;99847.00;3606827;39;20076;-61
2021/05/17 05:00:43;;;;;;;659.17;301.80;;;;;;;12.86;81.97;99848.41;3604693;39;20055;-62
2021/05/17 05:03:11;;;;;;;93.47;44.28;;;;;;;12.98;82.17;99836.84;3606801;39;20095;-61
2021/05/17 05:05:38;;;;;;;23.02;14.80;;;;;;;13.13;82.16;99835.47;3606570;39;20100;-60
2021/05/17 05:08:06;;;;;;;12.38;10.02;;;;;;;13.27;82.10;99836.91;3597046;39;20048;-60
2021/05/17 05:10:33;;;;;;;11.10;9.13;;;;;;;13.44;81.77;99835.41;3606717;39;20380;-62
2021/05/17 05:13:05;;;;;;;11.45;9.20;;;;;;;13.58;81.13;99833.16;3606937;39;20063;-61
2021/05/17 05:15:33;;;;;;;9.60;8.55;;;;;;;13.72;80.75;99842.41;3606600;39;20496;-61
2021/05/17 05:18:00;;;;;;;9.77;8.57;;;;;;;13.85;80.35;99852.63;3604358;39;20043;-61
2021/05/17 05:20:28;;;;;;;7.82;7.03;;;;;;;13.95;79.78;99853.41;3607026;39;20052;-62
2021/05/17 05:22:56;;;;;;;7.75;6.95;;;;;;;14.03;79.89;99853.56;3597311;39;20047;-61
2021/05/17 05:25:28;;;;;;;7.30;6.60;;;;;;;14.08;79.34;99858.38;3606207;39;20345;-62
2021/05/17 05:27:57;;;;;;;7.90;6.78;;;;;;;14.25;78.98;99860.28;3606088;39;20494;-62
2021/05/17 05:33:09;;;;;;;;;;;;;;;14.45;78.63;99854.94;3607294;39;20063;-60
2021/05/17 05:35:36;;;;;;;36.58;24.27;;;;;;;14.60;78.50;99848.25;3606357;39;19935;-60
2021/05/17 05:38:04;;;;;;;12.55;9.68;;;;;;;14.82;78.50;99853.13;3605982;39;20059;-63
2021/05/17 05:40:31;;;;;;;8.48;7.13;;;;;;;14.95;77.65;99860.66;3606340;39;20048;-71
2021/05/17 05:42:58;;;;;;;7.38;6.57;;;;;;;15.02;77.44;99851.19;3606384;39;20083;-69
2021/05/17 05:45:27;;;;;;;6.82;6.13;;;;;;;15.23;77.91;99853.53;3606199;39;20048;-68
2021/05/17 05:47:55;;;;;;;6.13;5.53;;;;;;;15.41;76.79;99858.00;3606430;39;20299;-70
2021/05/17 05:50:22;;;;;;;7.10;6.40;;;;;;;15.39;76.74;99858.16;3606183;39;20441;-69
2021/05/17 05:52:50;;;;;;;7.95;6.03;;;;;;;15.54;76.33;99868.97;3606262;39;20063;-69
2021/05/17 05:55:18;;;;;;;7.20;6.28;;;;;;;15.53;74.41;99862.06;3606168;39;20076;-63
2021/05/17 05:57:45;;;;;;;8.65;6.82;;;;;;;15.55;75.08;99873.28;3603977;39;20043;-60
2021/05/17 06:00:16;;;;;;;37.63;21.85;;;;;;;15.72;74.93;99872.47;3606342;39;20051;-62
2021/05/17 06:02:44;;;;;;;35.60;24.98;;;;;;;15.81;75.13;99866.28;3606231;39;20044;-60
2021/05/17 06:05:11;;;;;;;20.13;13.65;;;;;;;16.03;74.93;99864.94;3605901;39;20152;-69
2021/05/17 06:07:39;;;;;;;9.95;7.90;;;;;;;16.17;74.02;99868.00;3606074;39;20318;-69
2021/05/17 06:10:09;;;;;;;7.47;6.22;;;;;;;16.37;73.97;99864.97;3606277;39;20048;-72
2021/05/17 06:12:40;;;;;;;11.50;8.57;;;;;;;16.56;74.06;99871.00;3596517;39;20051;-68
2021/05/17 06:15:08;;;;;;;6.57;5.75;;;;;;;16.73;73.09;99870.13;3604157;39;20148;-70
2021/05/17 06:17:36;;;;;;;7.78;5.90;;;;;;;16.92;71.44;99876.13;3606006;39;20055;-74
2021/05/17 06:20:05;;;;;;;5.65;5.10;;;;;;;16.98;71.48;99871.00;3596386;39;20425;-64
2021/05/17 06:22:36;;;;;;;5.60;5.00;;;;;;;16.96;70.15;99873.00;3604423;39;20051;-63
2021/05/17 06:25:09;;;;;;;9.50;4.85;;;;;;;17.07;67.49;99871.88;3606273;39;20428;-64
2021/05/17 06:27:38;;;;;;;37.57;18.37;;;;;;;17.30;59.52;99872.09;3606060;39;20062;-66
2021/05/17 06:30:14;;;;;;;8.10;4.85;;;;;;;17.46;57.41;99871.28;3605738;39;20075;-62
2021/05/17 06:32:42;;;;;;;4.50;3.15;;;;;;;17.68;55.84;99881.19;3606249;39;20039;-60
2021/05/17 06:35:15;;;;;;;6.85;5.00;;;;;;;17.82;57.69;99875.28;3605687;39;20052;-60
2021/05/17 06:37:42;;;;;;;3.70;2.80;;;;;;;17.94;55.90;99877.56;3606319;39;20071;-61
2021/05/17 06:40:12;;;;;;;6.97;3.30;;;;;;;17.94;55.93;99877.56;3607536;39;20047;-63
2021/05/17 06:42:39;;;;;;;8.00;3.00;;;;;;;18.02;55.08;99875.75;3607474;39;20055;-59
2021/05/17 06:45:07;;;;;;;6.90;3.40;;;;;;;18.19;54.04;99881.03;3607725;39;20078;-61
2021/05/17 06:47:35;;;;;;;4.10;3.10;;;;;;;18.25;53.48;99883.81;3607689;39;20067;-61
2021/05/17 06:50:06;;;;;;;4.28;2.45;;;;;;;18.38;51.04;99891.25;3607588;39;20052;-61
2021/05/17 06:52:33;;;;;;;3.50;2.42;;;;;;;18.37;51.45;99884.28;3605894;39;20118;-63
2021/05/17 06:55:04;;;;;;;3.30;2.58;;;;;;;18.54;51.30;99893.00;3608157;39;21040;-60
2021/05/17 06:57:50;;;;;;;4.68;2.40;;;;;;;18.64;49.31;99888.34;3607707;39;20040;-60
2021/05/17 07:00:27;;;;;;;3.63;2.72;;;;;;;18.75;49.92;99900.41;3607674;39;20380;-61
2021/05/17 07:02:56;;;;;;;5.63;2.40;;;;;;;18.85;48.84;99890.44;3607248;39;20331;-64
2021/05/17 07:05:24;;;;;;;10.07;5.68;;;;;;;18.87;48.03;99899.88;3607653;39;20092;-61
2021/05/17 07:13:17;;;;;;;7.18;3.08;;;;;;;19.23;48.66;99906.47;3607519;39;20310;-65
2021/05/17 07:15:46;;;;;;;6.18;3.08;;;;;;;19.34;48.24;99904.25;3607589;39;20078;-63
2021/05/17 07:18:14;;;;;;;4.55;2.92;;;;;;;19.44;48.44;99901.38;3607290;39;20487;-64
2021/05/17 07:25:59;;;;;;;4.03;2.70;;;;;;;19.84;44.63;99902.91;3607484;39;20405;-62
2021/05/17 07:28:27;;;;;;;4.25;2.55;;;;;;;19.84;44.78;99910.88;3607446;39;20060;-64
2021/05/17 07:30:56;;;;;;;5.05;2.17;;;;;;;19.93;44.96;99906.31;3607100;39;20140;-63
2021/05/17 07:33:23;;;;;;;8.73;5.55;;;;;;;19.99;45.47;99905.63;3607293;39;20124;-65
2021/05/17 07:35:50;;;;;;;100.20;54.25;;;;;;;20.12;44.03;99904.97;3607312;39;20059;-61
2021/05/17 07:38:21;;;;;;;22.40;11.43;;;;;;;20.07;43.24;99904.69;3607463;39;20405;-62
2021/05/17 07:40:49;;;;;;;5.28;2.83;;;;;;;20.11;43.99;99909.47;3607207;39;20406;-66
2021/05/17 07:43:17;;;;;;;3.72;2.10;;;;;;;20.19;43.09;99916.53;3607506;39;20055;-62
2021/05/17 07:45:46;;;;;;;4.70;2.28;;;;;;;20.28;42.45;99909.31;3607407;39;20168;-62
2021/05/17 07:48:15;;;;;;;3.33;1.50;;;;;;;20.17;38.79;99915.88;3607028;39;20144;-62
2021/05/17 07:50:43;;;;;;;4.72;1.90;;;;;;;20.10;39.51;99921.09;3604730;39;20043;-60
2021/05/17 07:53:11;;;;;;;2.15;1.38;;;;;;;20.34;40.84;99913.91;3607135;39;20279;-61
2021/05/17 07:55:40;;;;;;;5.63;1.58;;;;;;;20.37;37.19;99916.22;3607201;39;20074;-61
2021/05/17 07:58:08;;;;;;;2.20;1.80;;;;;;;20.35;37.32;99905.75;3606782;39;20051;-62
2021/05/17 08:00:35;;;;;;;3.60;1.40;;;;;;;20.35;38.84;99907.59;3606614;39;20039;-61
2021/05/17 08:03:03;;;;;;;3.58;1.73;;;;;;;20.45;37.29;99914.25;3606574;39;20511;-60
2021/05/17 08:05:49;;;;;;;3.33;1.70;;;;;;;20.55;36.50;99905.22;3605643;39;20087;-61
2021/05/17 08:08:17;;;;;;;3.08;1.50;;;;;;;20.59;36.37;99911.84;3607550;39;20308;-65
2021/05/17 08:10:44;;;;;;;4.20;1.98;;;;;;;20.75;36.98;99910.81;3607014;39;20087;-61
2021/05/17 08:13:11;;;;;;;2.08;1.52;;;;;;;20.80;37.40;99914.59;3605190;39;20043;-62
2021/05/17 08:15:45;;;;;;;2.13;1.58;;;;;;;20.91;37.88;99921.25;3607235;39;20092;-60
2021/05/17 08:18:13;;;;;;;64.82;37.22;;;;;;;20.91;36.94;99916.75;3606911;39;20039;-63
2021/05/17 08:20:40;;;;;;;6.47;4.15;;;;;;;21.04;35.86;99912.63;3605048;39;20457;-61
2021/05/17 08:23:11;;;;;;;3.35;2.00;;;;;;;21.04;38.23;99910.78;3607024;39;20081;-61
2021/05/17 08:25:39;;;;;;;2.38;1.60;;;;;;;21.34;38.88;99916.06;3607168;39;20405;-61
2021/05/17 08:28:06;;;;;;;4.03;1.83;;;;;;;21.41;37.67;99919.59;3606797;39;20055;-61
2021/05/17 08:30:41;;;;;;;2.85;1.80;;;;;;;21.55;38.03;99916.06;3607159;39;20044;-61
2021/05/17 08:33:13;;;;;;;2.50;1.52;;;;;;;21.39;34.48;99925.13;3597298;39;20288;-61
2021/05/17 08:35:41;;;;;;;2.38;1.48;;;;;;;21.56;36.08;99911.59;3605332;39;20055;-60
2021/05/17 08:38:08;;;;;;;4.30;1.88;;;;;;;21.48;36.77;99918.66;3607028;39;20051;-61
2021/05/17 08:40:39;;;;;;;14.75;7.80;;;;;;;21.68;37.97;99910.03;3606764;39;20132;-60
2021/05/17 08:43:07;;;;;;;5.63;2.50;;;;;;;21.55;36.14;99918.72;3607181;39;20302;-61
2021/05/17 08:45:36;;;;;;;3.35;1.58;;;;;;;21.44;36.42;99914.72;3606811;39;20052;-62
2021/05/17 08:48:04;;;;;;;4.40;1.67;;;;;;;21.56;34.15;99916.91;3607140;39;20383;-63
2021/05/17 08:50:33;;;;;;;2.40;1.60;;;;;;;21.36;34.27;99912.19;3597465;39;20322;-60
2021/05/17 08:53:01;;;;;;;2.35;1.58;;;;;;;21.27;35.38;99913.31;3607020;39;20084;-63
2021/05/17 08:55:28;;;;;;;13.60;9.65;;;;;;;21.34;34.60;99905.41;3606954;39;20413;-61
2021/05/17 08:57:59;;;;;;;38.47;26.13;;;;;;;21.60;35.97;99895.03;3606590;39;20410;-65
2021/05/17 09:00:26;;;;;;;4.82;2.58;;;;;;;21.86;35.42;99893.63;3606830;39;20080;-62
2021/05/17 09:02:54;;;;;;;3.78;2.00;;;;;;;21.77;34.47;99897.44;3606554;39;20359;-61
2021/05/17 09:05:29;;;;;;;2.33;1.50;;;;;;;22.22;36.28;99888.19;3606993;39;20303;-62
2021/05/17 09:07:59;;;;;;;2.22;1.52;;;;;;;22.48;39.10;99895.50;3604103;39;20063;-61
2021/05/17 09:10:30;;;;;;;3.03;1.60;;;;;;;22.61;35.30;99892.09;3606609;39;20039;-62
2021/05/17 09:13:10;;;;;;;2.33;1.52;;;;;;;22.63;33.73;99890.88;3606298;39;20152;-62
2021/05/17 09:15:41;;;;;;;3.55;1.60;;;;;;;22.30;33.21;99882.69;3606329;39;20052;-62
2021/05/17 09:18:13;;;;;;;2.13;1.35;;;;;;;22.44;34.82;99881.75;3606269;39;20075;-62
2021/05/17 09:20:43;;;;;;;2.20;1.50;;;;;;;22.50;36.80;99874.81;3595105;39;20043;-64
2021/05/17 09:23:24;;;;;;;2.53;1.35;;;;;;;22.51;34.64;99880.97;3606484;39;20058;-62
2021/05/17 09:25:58;;;;;;;4.07;1.40;;;;;;;22.73;34.19;99887.84;3605033;39;20048;-63
2021/05/17 09:28:36;;;;;;;2.22;1.60;;;;;;;22.43;33.48;99889.94;3606862;39;20128;-63
2021/05/17 09:31:14;;;;;;;3.60;1.40;;;;;;;22.40;34.00;99893.00;3604959;39;20133;-61
2021/05/17 09:33:49;;;;;;;2.92;1.38;;;;;;;22.80;34.20;99894.03;3606441;39;20049;-62
2021/05/17 09:36:29;;;;;;;2.33;1.52;;;;;;;22.73;32.79;99888.66;3604923;39;20063;-60
2021/05/17 09:39:10;;;;;;;1.55;1.10;;;;;;;23.06;39.88;99888.00;3606387;39;20050;-62
2021/05/17 09:41:40;;;;;;;2.75;1.63;;;;;;;23.19;35.40;99876.56;3606478;39;20136;-62
2021/05/17 09:44:10;;;;;;;1.70;1.40;;;;;;;23.28;34.89;99874.53;3606580;39;20044;-64
2021/05/17 09:47:23;;;;;;;3.88;1.40;;;;;;;23.52;35.62;99869.41;3606480;39;20399;-65
2021/05/17 09:49:59;;;;;;;2.53;1.40;;;;;;;23.65;36.48;99865.97;3554089;40;20094;-63
2021/05/17 09:52:29;;;;;;;2.25;1.35;;;;;;;23.64;35.54;99867.00;3602829;39;20048;-62
2021/05/17 09:55:02;;;;;;;2.65;1.45;;;;;;;23.09;34.05;99871.59;3606490;39;20322;-61
2021/05/17 09:57:44;;;;;;;3.17;1.50;;;;;;;23.02;35.89;99872.59;3606282;39;20406;-62
2021/05/17 10:00:14;;;;;;;2.72;1.60;;;;;;;22.84;34.95;99868.63;3606411;39;20044;-62
2021/05/17 10:02:46;;;;;;;2.03;1.23;;;;;;;22.60;35.11;99867.28;3604474;39;20046;-63
2021/05/17 10:05:21;;;;;;;2.20;1.55;;;;;;;22.32;34.85;99867.34;3606594;39;20056;-62
2021/05/17 10:07:53;;;;;;;3.80;1.55;;;;;;;22.12;35.57;99863.72;3606162;39;20397;-61
2021/05/17 10:10:39;;;;;;;3.78;1.65;;;;;;;22.00;34.28;99855.44;3606137;39;20039;-62
2021/05/17 10:13:06;;;;;;;2.47;1.50;;;;;;;22.39;36.81;99860.19;3606770;39;20070;-65
2021/05/17 10:15:36;;;;;;;2.88;1.80;;;;;;;22.68;37.94;99867.09;3608050;39;20056;-62
2021/05/17 10:18:15;;;;;;;2.42;1.70;;;;;;;22.40;34.62;99856.50;3607897;39;20048;-65
2021/05/17 10:20:44;;;;;;;3.78;1.80;;;;;;;22.42;35.78;99859.00;3607884;39;20052;-62
2021/05/17 10:23:15;;;;;;;3.00;1.70;;;;;;;22.32;37.82;99859.34;3608038;39;20044;-63
2021/05/17 10:25:44;;;;;;;3.00;1.83;;;;;;;22.14;35.40;99851.03;3605744;39;20375;-61
2021/05/17 10:28:18;;;;;;;2.60;1.65;;;;;;;21.99;34.43;99846.63;3607765;39;20117;-63
2021/05/17 10:30:45;;;;;;;2.28;1.50;;;;;;;22.57;37.26;99842.88;3607753;39;20048;-63
2021/05/17 10:33:25;;;;;;;2.08;1.40;;;;;;;23.05;36.46;99846.34;3605708;39;20499;-63
2021/05/17 10:35:53;;;;;;;4.55;1.50;;;;;;;23.18;33.84;99843.72;3607537;39;20060;-62
2021/05/17 10:38:24;;;;;;;3.83;1.98;;;;;;;23.38;35.86;99837.59;3607611;39;20131;-62
2021/05/17 10:41:01;;;;;;;4.13;1.70;;;;;;;23.59;35.18;99836.56;3607656;39;20422;-62
2021/05/17 10:43:49;;;;;;;2.30;1.60;;;;;;;23.73;33.96;99839.03;3607556;39;20448;-62
2021/05/17 10:46:40;;;;;;;2.80;1.65;;;;;;;24.10;34.99;99843.94;3607634;39;20623;-65
2021/05/17 10:49:34;;;;;;;3.70;1.88;;;;;;;24.20;30.79;99831.78;3605850;39;20051;-65
2021/05/17 10:52:04;;;;;;;4.70;2.65;;;;;;;24.47;33.99;99835.25;3607427;39;20058;-63
2021/05/17 10:54:32;;;;;;;28.98;13.57;;;;;;;24.57;33.19;99829.44;3606058;39;20040;-63
2021/05/17 10:57:02;;;;;;;2.85;1.83;;;;;;;24.14;31.48;99835.31;3607632;39;20066;-65
2021/05/17 11:02:29;;;;;;;3.72;1.70;;;;;;;24.05;33.17;99841.91;3607039;39;20082;-66
2021/05/17 11:05:02;;;;;;;8.23;1.42;;;;;;;24.15;33.07;99842.28;3607375;39;20079;-66
2021/05/17 11:07:33;;;;;;;2.72;1.38;;;;;;;23.90;32.42;99836.78;3607800;39;20039;-66
2021/05/17 11:10:08;;;;;;;2.42;1.67;;;;;;;23.92;32.97;99844.59;3607335;39;20202;-66
2021/05/17 11:12:38;;;;;;;6.07;1.75;;;;;;;23.97;34.14;99845.59;3607595;39;20052;-66
2021/05/17 11:15:07;;;;;;;2.22;1.38;;;;;;;23.91;32.73;99849.09;3607100;39;20054;-65
2021/05/17 11:17:53;;;;;;;2.25;1.52;;;;;;;23.85;32.93;99847.28;3605198;39;20083;-64
2021/05/17 11:20:43;;;;;;;6.38;1.77;;;;;;;24.23;34.32;99844.75;3606853;39;20410;-63
2021/05/17 11:23:13;;;;;;;2.03;1.58;;;;;;;24.28;33.45;99847.59;3607360;39;20700;-63
2021/05/17 11:26:00;;;;;;;3.20;1.50;;;;;;;24.45;33.99;99837.31;3605217;39;20051;-62
2021/05/17 11:28:34;;;;;;;2.28;1.33;;;;;;;24.22;33.95;99837.75;3607537;39;20091;-62
2021/05/17 11:31:14;;;;;;;2.72;1.50;;;;;;;24.03;35.26;99833.28;3607589;39;20449;-64
2021/05/17 11:33:52;;;;;;;2.80;1.77;;;;;;;23.89;34.72;99837.00;3605100;39;20043;-61
2021/05/17 11:36:29;;;;;;;3.50;1.73;;;;;;;23.71;33.79;99840.28;3607274;39;20047;-63
2021/05/17 11:39:16;;;;;;;4.03;1.75;;;;;;;23.99;33.13;99832.06;3607485;39;20099;-63
2021/05/17 11:41:47;;;;;;;2.20;1.70;;;;;;;24.24;33.01;99838.38;3607214;39;20055;-65
2021/05/17 11:44:22;;;;;;;5.22;2.00;;;;;;;23.76;34.00;99840.50;3607104;39;20048;-62
2021/05/17 11:47:01;;;;;;;4.70;2.80;;;;;;;23.02;34.67;99846.75;3607125;39;20039;-62
2021/05/17 11:49:32;;;;;;;14.07;8.90;;;;;;;22.68;34.32;99835.13;3607089;39;20129;-62
2021/05/17 11:52:11;;;;;;;3.20;2.15;;;;;;;22.49;35.30;99841.19;3607068;39;20054;-61
2021/05/17 11:54:45;;;;;;;3.88;2.35;;;;;;;22.43;36.24;99837.47;3606076;39;20067;-63
2021/05/17 11:57:13;;;;;;;3.75;1.70;;;;;;;22.18;36.68;99831.81;3606677;39;20044;-63
2021/05/17 11:59:40;;;;;;;4.55;2.00;;;;;;;22.19;36.35;99833.44;3607129;39;20124;-67
2021/05/17 12:02:14;;;;;;;2.13;1.50;;;;;;;22.28;37.67;99827.97;3607591;39;20329;-61
2021/05/17 12:04:43;;;;;;;5.97;2.00;;;;;;;22.25;36.92;99829.16;3606370;39;20305;-62
2021/05/17 12:07:18;;;;;;;4.38;1.67;;;;;;;22.54;37.48;99822.75;3607162;39;20049;-61
2021/05/17 12:09:50;;;;;;;3.30;1.63;;;;;;;23.03;35.47;99823.59;3607168;39;20055;-61
2021/05/17 12:12:28;;;;;;;1.77;1.30;;;;;;;23.46;36.19;99805.38;3605301;39;20074;-62
2021/05/17 12:15:03;;;;;;;4.47;1.55;;;;;;;23.77;35.52;99799.41;3606863;39;20056;-63
2021/05/17 12:17:32;;;;;;;2.83;1.60;;;;;;;23.62;32.50;99796.09;3604980;39;20054;-62